Time;durP1;ratioP1;P1;durP2;ratioP2;P2;SDS_P1;SDS_P2;PMS_P1;PMS_P2;Temp;Humidity;BMP_temperature;BMP_pressure;BME280_temperature;BME280_humidity;BME280_pressure;Samples;Min_cycle;Max_cycle;Signal;HPM_P1;HPM_P2
2021/11/03 00:00:15;;;;;;;11.20;0.90;;;24.30;96.40;;;;;;5068292;28;20185;-73
2021/11/03 00:02:43;;;;;;;5.87;1.17;;;24.60;96.00;;;;;;5070336;28;20187;-69
2021/11/03 00:05:14;;;;;;;5.00;0.83;;;24.60;95.80;;;;;;5070300;28;20245;-71
2021/11/03 00:07:43;;;;;;;5.17;0.77;;;24.80;95.80;;;;;;5060108;28;20187;-71
2021/11/03 00:10:13;;;;;;;7.07;1.27;;;25.10;95.60;;;;;;5070505;28;20286;-71
2021/11/03 00:12:41;;;;;;;3.23;1.13;;;24.90;95.60;;;;;;5073966;28;20265;-68
2021/11/03 00:15:09;;;;;;;6.77;1.93;;;25.00;95.50;;;;;;5073947;28;20201;-72
2021/11/03 00:17:37;;;;;;;4.93;0.87;;;24.70;95.80;;;;;;5073800;28;20282;-72
2021/11/03 00:20:07;;;;;;;2.93;0.73;;;24.70;95.80;;;;;;5074471;28;20564;-71
2021/11/03 00:22:35;;;;;;;5.03;1.07;;;24.90;96.00;;;;;;5074519;28;20191;-73
2021/11/03 00:25:03;;;;;;;4.57;0.90;;;24.80;95.70;;;;;;5073149;28;20676;-68
2021/11/03 00:27:30;;;;;;;5.80;1.33;;;24.40;96.00;;;;;;5073751;28;20179;-69
2021/11/03 00:29:58;;;;;;;3.63;0.87;;;24.50;95.90;;;;;;5073608;28;20183;-73
2021/11/03 00:32:25;;;;;;;3.90;1.53;;;24.80;95.70;;;;;;5074079;28;20542;-70
2021/11/03 00:34:52;;;;;;;7.90;1.10;;;24.80;95.40;;;;;;5073444;28;20178;-67
2021/11/03 00:37:21;;;;;;;9.07;1.20;;;24.80;95.50;;;;;;5068981;28;20195;-73
2021/11/03 00:39:48;;;;;;;6.43;1.00;;;24.80;95.70;;;;;;5076377;28;20545;-68
2021/11/03 00:42:15;;;;;;;4.97;0.90;;;24.80;95.60;;;;;;5071676;28;20183;-74
2021/11/03 00:44:43;;;;;;;6.00;0.80;;;24.80;95.10;;;;;;5071431;28;20542;-73
2021/11/03 00:47:10;;;;;;;4.27;0.87;;;24.80;95.40;;;;;;5073496;28;20182;-68
2021/11/03 00:49:38;;;;;;;6.10;1.20;;;25.00;95.30;;;;;;5073412;28;20167;-72
2021/11/03 00:52:05;;;;;;;9.00;1.10;;;25.10;95.30;;;;;;5105802;28;20613;-71
2021/11/03 00:54:33;;;;;;;5.53;0.83;;;24.60;95.60;;;;;;5073134;28;20175;-73
2021/11/03 00:57:00;;;;;;;9.13;1.27;;;24.30;95.70;;;;;;5074403;28;20211;-70
2021/11/03 00:59:28;;;;;;;5.93;0.80;;;24.40;96.20;;;;;;5074014;28;20190;-70
2021/11/03 01:01:55;;;;;;;5.23;0.90;;;24.60;95.80;;;;;;5072098;28;20178;-69
2021/11/03 01:04:24;;;;;;;6.07;1.13;;;24.50;96.10;;;;;;5073636;28;20266;-69
2021/11/03 01:06:52;;;;;;;3.30;0.80;;;24.50;96.40;;;;;;5073830;28;20206;-76
2021/11/03 01:09:19;;;;;;;3.40;0.90;;;24.20;96.60;;;;;;5073816;28;20191;-70
2021/11/03 01:11:47;;;;;;;6.97;0.87;;;24.50;96.60;;;;;;5073434;28;20223;-68
2021/11/03 01:14:14;;;;;;;4.63;0.87;;;24.30;96.30;;;;;;5067849;28;20187;-72
2021/11/03 01:16:42;;;;;;;2.93;0.90;;;24.20;96.80;;;;;;5072068;28;20703;-70
2021/11/03 01:19:09;;;;;;;3.07;1.00;;;24.30;96.40;;;;;;5072737;28;20306;-72
2021/11/03 01:21:38;;;;;;;4.80;1.00;;;24.60;96.20;;;;;;5073174;28;20190;-72
2021/11/03 01:24:07;;;;;;;4.27;1.00;;;24.40;96.00;;;;;;5073359;28;20237;-70
2021/11/03 01:26:35;;;;;;;8.07;1.63;;;24.80;95.90;;;;;;5072545;28;20171;-73
2021/11/03 01:29:03;;;;;;;2.70;0.90;;;24.70;95.70;;;;;;5072111;28;20660;-72
2021/11/03 01:31:31;;;;;;;5.03;0.80;;;24.90;95.70;;;;;;5071142;28;20190;-72
2021/11/03 01:33:59;;;;;;;5.70;1.30;;;25.40;95.10;;;;;;5064845;28;20185;-70
2021/11/03 01:36:26;;;;;;;3.27;1.03;;;25.20;94.90;;;;;;5071799;28;20207;-73
2021/11/03 01:38:54;;;;;;;6.83;0.83;;;24.90;95.30;;;;;;5074063;28;20214;-73
2021/11/03 01:41:22;;;;;;;7.37;1.40;;;24.70;95.30;;;;;;5068209;28;20205;-71
2021/11/03 01:43:59;;;;;;;3.73;0.70;;;25.00;95.30;;;;;;5072452;28;20676;-71
2021/11/03 01:46:29;;;;;;;6.67;1.10;;;25.20;95.30;;;;;;5066827;28;20214;-73
2021/11/03 01:49:00;;;;;;;5.20;0.80;;;24.90;95.10;;;;;;5076368;28;20186;-74
2021/11/03 01:51:45;;;;;;;4.43;0.97;;;24.90;95.00;;;;;;5075381;28;20531;-71
2021/11/03 01:54:24;;;;;;;6.27;0.97;;;24.70;94.50;;;;;;5072345;28;20183;-71
2021/11/03 01:56:52;;;;;;;7.73;1.40;;;24.80;94.80;;;;;;5071429;28;20182;-69
2021/11/03 01:59:29;;;;;;;4.17;1.00;;;24.80;95.10;;;;;;5077246;28;20183;-71
2021/11/03 02:01:57;;;;;;;7.67;1.10;;;25.20;95.00;;;;;;5073593;28;20229;-70
2021/11/03 02:04:25;;;;;;;4.23;1.00;;;25.70;94.80;;;;;;5079681;28;20248;-72
2021/11/03 02:06:55;;;;;;;8.13;1.10;;;25.20;95.00;;;;;;5076495;28;20323;-67
2021/11/03 02:09:22;;;;;;;3.60;0.90;;;25.10;95.40;;;;;;5073433;28;20179;-72
2021/11/03 02:11:50;;;;;;;6.17;1.00;;;25.00;95.70;;;;;;5063333;28;20230;-72
2021/11/03 02:14:17;;;;;;;6.40;0.87;;;24.80;95.80;;;;;;5072324;28;20190;-71
2021/11/03 02:16:49;;;;;;;7.23;1.20;;;24.70;95.60;;;;;;5070382;28;20223;-71
2021/11/03 02:19:23;;;;;;;5.33;1.37;;;24.40;95.70;;;;;;5067323;28;20222;-70
2021/11/03 02:22:06;;;;;;;5.47;1.00;;;24.30;95.80;;;;;;5070275;28;20205;-69
2021/11/03 02:24:52;;;;;;;9.90;1.10;;;24.40;95.80;;;;;;5068683;28;20258;-69
2021/11/03 02:27:25;;;;;;;6.30;1.23;;;24.90;95.70;;;;;;5072158;28;20183;-70
2021/11/03 02:29:53;;;;;;;2.40;0.70;;;25.20;95.10;;;;;;5071676;28;20182;-73
2021/11/03 02:32:26;;;;;;;10.10;0.97;;;25.40;95.10;;;;;;5072158;28;20177;-69
2021/11/03 02:34:54;;;;;;;7.90;1.37;;;25.50;95.00;;;;;;5071571;28;20484;-72
2021/11/03 02:37:29;;;;;;;4.23;1.13;;;25.60;95.20;;;;;;5072311;28;20195;-70
2021/11/03 02:40:17;;;;;;;7.97;1.10;;;25.60;94.60;;;;;;5072299;28;20186;-72
2021/11/03 02:42:54;;;;;;;6.43;0.97;;;25.50;94.70;;;;;;5072460;28;20174;-75
2021/11/03 02:45:48;;;;;;;7.53;1.10;;;25.50;94.80;;;;;;5072140;28;20687;-73
2021/11/03 02:48:16;;;;;;;9.23;1.00;;;25.70;94.70;;;;;;5072281;28;20254;-70
2021/11/03 02:50:57;;;;;;;5.77;1.13;;;25.70;94.10;;;;;;5071788;28;20175;-70
2021/11/03 02:53:25;;;;;;;2.80;0.80;;;25.70;93.90;;;;;;5071774;28;20637;-70
2021/11/03 02:55:52;;;;;;;5.43;1.13;;;26.00;93.80;;;;;;5071847;28;20262;-77
2021/11/03 02:58:20;;;;;;;3.27;1.10;;;25.90;93.30;;;;;;5072216;28;20766;-69
2021/11/03 03:00:48;;;;;;;3.43;0.83;;;26.00;93.10;;;;;;5071997;28;20649;-72
2021/11/03 03:03:16;;;;;;;8.33;1.00;;;25.70;93.10;;;;;;5071841;28;20183;-69
2021/11/03 03:06:00;;;;;;;4.17;0.80;;;25.60;93.70;;;;;;5067011;28;20179;-69
2021/11/03 03:08:27;;;;;;;3.40;0.70;;;26.20;93.30;;;;;;5071720;28;20186;-71
2021/11/03 03:10:55;;;;;;;2.37;1.10;;;26.00;93.70;;;;;;5071791;28;20682;-70
2021/11/03 03:13:22;;;;;;;1.90;0.63;;;26.50;93.10;;;;;;5071851;28;20242;-74
2021/11/03 03:15:49;;;;;;;7.17;1.40;;;26.20;93.00;;;;;;5071243;28;20175;-72
2021/11/03 03:18:17;;;;;;;3.17;0.73;;;26.30;93.20;;;;;;5070759;28;20210;-71
2021/11/03 03:20:44;;;;;;;5.10;0.93;;;26.30;92.70;;;;;;5071007;28;20221;-72
2021/11/03 03:23:11;;;;;;;4.43;0.80;;;26.20;92.90;;;;;;5071448;28;20252;-78
2021/11/03 03:25:40;;;;;;;5.13;1.17;;;26.30;92.70;;;;;;5062157;28;20184;-70
2021/11/03 03:28:07;;;;;;;3.43;0.87;;;26.20;93.00;;;;;;5063416;28;20207;-71
2021/11/03 03:30:35;;;;;;;6.10;0.87;;;26.40;92.90;;;;;;5071518;28;20187;-73
2021/11/03 03:33:02;;;;;;;4.20;1.00;;;26.20;92.80;;;;;;5063052;28;20183;-74
2021/11/03 03:35:30;;;;;;;2.83;0.60;;;26.40;93.10;;;;;;5058747;28;20178;-71
2021/11/03 03:37:57;;;;;;;6.13;1.03;;;26.90;93.10;;;;;;5071232;28;20198;-70
2021/11/03 03:40:24;;;;;;;5.17;1.07;;;27.10;92.40;;;;;;5070958;28;20278;-69
2021/11/03 03:42:52;;;;;;;6.67;1.17;;;26.60;92.70;;;;;;5071124;28;20183;-72
2021/11/03 03:45:19;;;;;;;6.87;0.80;;;26.70;92.80;;;;;;5067107;28;20704;-74
2021/11/03 03:47:47;;;;;;;5.33;1.10;;;26.70;92.90;;;;;;5074128;28;20544;-73
2021/11/03 03:50:14;;;;;;;6.97;0.80;;;26.60;93.40;;;;;;5073502;28;20194;-73
2021/11/03 03:52:42;;;;;;;6.10;1.50;;;27.00;93.00;;;;;;5073053;28;20179;-72
2021/11/03 03:55:11;;;;;;;5.70;0.90;;;26.20;93.50;;;;;;5073364;28;20176;-73
2021/11/03 03:57:39;;;;;;;5.67;0.77;;;26.70;92.90;;;;;;5074265;28;20215;-73
2021/11/03 04:00:11;;;;;;;3.37;0.80;;;26.10;92.50;;;;;;5074398;28;20179;-71
2021/11/03 04:02:38;;;;;;;2.53;0.67;;;26.70;91.90;;;;;;5073822;28;20187;-72
2021/11/03 04:05:06;;;;;;;12.30;1.00;;;26.80;91.80;;;;;;5074776;28;20167;-74
2021/11/03 04:07:34;;;;;;;5.23;1.23;;;26.20;92.50;;;;;;5074595;28;20667;-71
2021/11/03 04:10:01;;;;;;;3.20;0.63;;;26.10;92.80;;;;;;5074134;28;20206;-71
2021/11/03 04:12:28;;;;;;;5.17;1.10;;;26.40;93.10;;;;;;5074476;28;20303;-71
2021/11/03 04:14:56;;;;;;;6.63;1.10;;;26.40;93.20;;;;;;5074833;28;20175;-69
2021/11/03 04:17:23;;;;;;;2.27;0.83;;;26.60;92.80;;;;;;5074471;28;20653;-72
2021/11/03 04:19:51;;;;;;;3.57;0.97;;;26.50;92.40;;;;;;5070332;28;20218;-72
2021/11/03 04:22:19;;;;;;;7.63;1.07;;;26.60;92.10;;;;;;5074677;28;20175;-72
2021/11/03 04:24:46;;;;;;;4.80;1.10;;;26.40;92.40;;;;;;5074853;28;20171;-73
2021/11/03 04:27:13;;;;;;;6.97;1.27;;;26.70;92.10;;;;;;5074569;28;20175;-73
2021/11/03 04:29:41;;;;;;;4.10;0.97;;;26.80;92.30;;;;;;5075253;28;20183;-71
2021/11/03 04:32:09;;;;;;;5.57;1.53;;;26.90;92.20;;;;;;5074200;28;20185;-71
2021/11/03 04:34:36;;;;;;;4.47;0.73;;;27.00;92.20;;;;;;5074956;28;20183;-71
2021/11/03 04:37:04;;;;;;;2.93;0.70;;;27.30;91.80;;;;;;5074597;28;20211;-72
2021/11/03 04:39:31;;;;;;;5.23;1.27;;;26.90;92.30;;;;;;5074966;28;20657;-74
2021/11/03 04:41:59;;;;;;;4.50;0.97;;;26.10;93.00;;;;;;5074283;28;20171;-72
2021/11/03 04:44:26;;;;;;;4.63;1.00;;;26.00;93.30;;;;;;5074648;28;20184;-71
2021/11/03 04:46:53;;;;;;;4.00;1.30;;;26.70;93.10;;;;;;5074568;28;20184;-72
2021/11/03 04:49:21;;;;;;;3.70;1.23;;;27.20;91.90;;;;;;5074295;28;20195;-69
2021/11/03 04:51:48;;;;;;;4.07;0.90;;;26.80;92.10;;;;;;5074405;28;20634;-72
2021/11/03 04:54:15;;;;;;;3.47;0.90;;;27.40;91.50;;;;;;5073862;28;20179;-72
2021/11/03 04:56:43;;;;;;;8.33;1.40;;;27.20;91.40;;;;;;5072896;28;20182;-71
2021/11/03 04:59:12;;;;;;;4.47;1.07;;;27.20;91.40;;;;;;5074282;28;20253;-72
2021/11/03 05:01:39;;;;;;;5.37;0.80;;;26.50;92.00;;;;;;5074025;28;20180;-70
2021/11/03 05:04:07;;;;;;;2.73;0.80;;;26.20;92.50;;;;;;5074146;28;20179;-69
2021/11/03 05:06:36;;;;;;;4.20;1.00;;;26.30;92.60;;;;;;5069710;28;20521;-74
2021/11/03 05:09:06;;;;;;;5.17;1.20;;;25.70;92.80;;;;;;5068448;28;20175;-69
2021/11/03 05:11:34;;;;;;;9.23;1.13;;;25.50;93.40;;;;;;5072075;28;20566;-72
2021/11/03 05:14:02;;;;;;;6.90;1.00;;;25.10;93.90;;;;;;5073180;28;20223;-72
2021/11/03 05:16:30;;;;;;;6.17;1.03;;;24.80;94.10;;;;;;5073856;28;20171;-69
2021/11/03 05:18:59;;;;;;;6.73;0.90;;;24.90;94.10;;;;;;5074148;28;20570;-73
2021/11/03 05:21:26;;;;;;;2.70;0.90;;;25.30;94.00;;;;;;5067768;28;20175;-73
2021/11/03 05:23:54;;;;;;;2.37;0.70;;;25.30;93.80;;;;;;5073652;28;20249;-72
2021/11/03 05:26:25;;;;;;;10.43;1.33;;;25.60;93.50;;;;;;5072556;28;20183;-72
2021/11/03 05:28:56;;;;;;;5.23;1.20;;;25.90;93.40;;;;;;5072864;28;20270;-72
2021/11/03 05:31:24;;;;;;;6.00;1.33;;;26.00;93.10;;;;;;5073778;28;20191;-71
2021/11/03 05:33:51;;;;;;;5.67;1.00;;;25.60;93.40;;;;;;5073488;28;20190;-75
2021/11/03 05:36:23;;;;;;;8.87;1.07;;;26.40;93.10;;;;;;5073627;28;20172;-71
2021/11/03 05:38:50;;;;;;;2.77;0.77;;;26.10;93.00;;;;;;5073723;28;20635;-73
2021/11/03 05:41:20;;;;;;;3.83;1.10;;;25.90;93.30;;;;;;5072974;28;20226;-71
2021/11/03 05:43:48;;;;;;;2.47;0.90;;;25.90;93.60;;;;;;5062003;28;20837;-72
2021/11/03 05:46:23;;;;;;;8.07;1.17;;;25.90;93.20;;;;;;5067276;28;20220;-72
2021/11/03 05:48:52;;;;;;;8.13;1.40;;;25.10;93.90;;;;;;5073567;28;20187;-74
2021/11/03 05:51:20;;;;;;;12.97;1.30;;;24.50;94.50;;;;;;5072658;28;20182;-72
2021/11/03 05:53:48;;;;;;;7.10;1.47;;;24.50;94.90;;;;;;5062605;28;20523;-71
2021/11/03 05:56:15;;;;;;;12.77;1.00;;;24.50;95.00;;;;;;5070565;28;20812;-71
2021/11/03 05:58:44;;;;;;;5.37;1.10;;;24.00;95.00;;;;;;5070657;28;20211;-71
2021/11/03 06:01:11;;;;;;;6.67;1.30;;;23.60;95.50;;;;;;5072539;28;20191;-72
2021/11/03 06:03:38;;;;;;;6.57;0.90;;;23.60;95.80;;;;;;5071680;28;20239;-70
2021/11/03 06:06:06;;;;;;;9.13;1.20;;;23.50;95.70;;;;;;5069254;28;20174;-71
2021/11/03 06:08:33;;;;;;;7.13;1.17;;;23.30;96.20;;;;;;5072211;28;20203;-70
2021/11/03 06:11:02;;;;;;;5.53;1.17;;;23.30;96.40;;;;;;5072072;28;20176;-70
2021/11/03 06:13:29;;;;;;;6.17;1.40;;;23.20;96.70;;;;;;5070188;28;20226;-71
2021/11/03 06:16:00;;;;;;;5.77;0.93;;;23.30;96.90;;;;;;5071326;28;20683;-73
2021/11/03 06:18:27;;;;;;;10.13;1.63;;;23.40;96.60;;;;;;5072610;28;20195;-70
2021/11/03 06:20:54;;;;;;;4.03;1.03;;;23.60;96.40;;;;;;5073101;28;20186;-69
2021/11/03 06:23:22;;;;;;;7.33;1.40;;;24.00;96.00;;;;;;5072748;28;20186;-73
2021/11/03 06:25:49;;;;;;;6.33;0.97;;;24.40;95.80;;;;;;5072486;28;20167;-70
2021/11/03 06:28:17;;;;;;;4.83;0.80;;;25.30;95.10;;;;;;5059600;28;20180;-69
2021/11/03 06:30:46;;;;;;;4.80;0.77;;;25.10;94.60;;;;;;5062770;28;20175;-74
2021/11/03 06:33:13;;;;;;;7.50;1.27;;;25.50;94.20;;;;;;5071669;28;20183;-70
2021/11/03 06:36:10;;;;;;;7.93;1.07;;;25.70;93.80;;;;;;5071500;28;20633;-70
2021/11/03 06:38:37;;;;;;;6.63;1.40;;;25.40;94.10;;;;;;5070589;28;20214;-71
2021/11/03 06:41:06;;;;;;;4.77;1.10;;;24.70;95.10;;;;;;5071131;28;20167;-71
2021/11/03 06:43:34;;;;;;;9.93;1.70;;;24.30;95.80;;;;;;5071585;28;20594;-72
2021/11/03 06:46:01;;;;;;;4.63;1.13;;;24.40;95.50;;;;;;5059948;28;20545;-72
2021/11/03 06:48:29;;;;;;;15.43;1.50;;;24.70;95.30;;;;;;5071627;28;20223;-73
2021/11/03 06:50:57;;;;;;;3.37;1.07;;;24.30;95.60;;;;;;5070171;28;20262;-69
2021/11/03 06:53:26;;;;;;;8.40;1.70;;;24.30;95.50;;;;;;5072022;28;20262;-71
2021/11/03 06:55:55;;;;;;;11.10;1.23;;;24.10;96.10;;;;;;5071934;28;20328;-74
2021/11/03 06:58:24;;;;;;;6.43;0.80;;;23.90;96.20;;;;;;5072290;28;20234;-69
2021/11/03 07:00:54;;;;;;;3.63;0.90;;;23.80;96.60;;;;;;5072021;28;20175;-72
2021/11/03 07:03:32;;;;;;;9.67;1.67;;;23.40;97.30;;;;;;5072486;28;20178;-70
2021/11/03 07:05:59;;;;;;;7.20;1.37;;;23.10;98.50;;;;;;5073099;28;20260;-71
2021/11/03 07:08:27;;;;;;;12.73;2.33;;;22.50;98.80;;;;;;5072009;28;20179;-71
2021/11/03 07:10:57;;;;;;;5.07;1.20;;;22.40;99.90;;;;;;5071658;28;20207;-70
2021/11/03 07:13:27;;;;;;;7.13;1.47;;;22.20;99.90;;;;;;5068666;28;20226;-71
2021/11/03 07:15:55;;;;;;;8.20;1.50;;;22.20;99.90;;;;;;5071285;28;20667;-70
2021/11/03 07:18:23;;;;;;;4.37;1.20;;;22.00;99.90;;;;;;5072021;28;20264;-70
2021/11/03 07:20:51;;;;;;;5.23;1.30;;;21.90;99.90;;;;;;5077252;28;20262;-73
2021/11/03 07:23:21;;;;;;;6.40;1.30;;;21.90;99.90;;;;;;5079073;28;20193;-73
2021/11/03 07:25:49;;;;;;;7.90;1.70;;;21.90;99.90;;;;;;5078536;28;20175;-74
2021/11/03 07:28:17;;;;;;;8.30;1.63;;;21.70;99.90;;;;;;5078948;28;20232;-69
2021/11/03 07:30:45;;;;;;;11.17;1.83;;;21.60;99.90;;;;;;5078825;28;20175;-74
2021/11/03 07:33:13;;;;;;;12.03;1.83;;;21.60;99.90;;;;;;5079380;28;20179;-69
2021/11/03 07:35:41;;;;;;;14.00;1.50;;;21.60;99.90;;;;;;5077994;28;20179;-72
2021/11/03 07:38:10;;;;;;;11.00;1.50;;;21.60;99.90;;;;;;5078540;28;20625;-73
2021/11/03 07:40:43;;;;;;;11.63;1.67;;;21.60;99.90;;;;;;5076650;28;20167;-75
2021/11/03 07:43:14;;;;;;;4.63;1.10;;;21.50;99.90;;;;;;5077721;28;20175;-73
2021/11/03 07:45:42;;;;;;;7.70;1.53;;;21.50;99.90;;;;;;5078134;28;20262;-71
2021/11/03 07:48:10;;;;;;;11.63;1.40;;;21.50;99.90;;;;;;5078247;28;20177;-73
2021/11/03 07:50:45;;;;;;;9.20;1.97;;;21.50;99.90;;;;;;5076372;28;20213;-75
2021/11/03 07:53:14;;;;;;;10.33;1.63;;;21.30;99.90;;;;;;5078867;28;20224;-73
2021/11/03 07:55:49;;;;;;;11.53;1.40;;;21.30;99.90;;;;;;5078025;28;20415;-72
2021/11/03 07:58:21;;;;;;;8.00;1.77;;;21.20;99.90;;;;;;5077883;28;20218;-73
2021/11/03 08:00:50;;;;;;;5.53;1.00;;;21.20;99.90;;;;;;5078700;28;20229;-71
2021/11/03 08:03:18;;;;;;;9.77;1.70;;;21.10;99.90;;;;;;5078247;28;20178;-76
2021/11/03 08:05:50;;;;;;;6.20;1.20;;;21.00;99.90;;;;;;5076786;28;20273;-72
2021/11/03 08:08:20;;;;;;;9.40;1.40;;;21.00;99.90;;;;;;5071157;28;20179;-70
2021/11/03 08:10:48;;;;;;;8.47;1.73;;;21.00;99.90;;;;;;5077230;28;20283;-72
2021/11/03 08:13:17;;;;;;;9.53;1.30;;;21.00;99.90;;;;;;5072247;28;20234;-73
2021/11/03 08:15:46;;;;;;;9.30;1.37;;;21.00;99.90;;;;;;5077763;28;20187;-72
2021/11/03 08:18:15;;;;;;;14.40;1.57;;;21.00;99.90;;;;;;5078341;28;20217;-71
2021/11/03 08:20:44;;;;;;;9.47;1.50;;;20.90;99.90;;;;;;5063229;28;20171;-72
2021/11/03 08:23:13;;;;;;;8.70;1.23;;;20.90;99.90;;;;;;5075626;28;20187;-72
2021/11/03 08:25:42;;;;;;;10.97;1.80;;;20.90;99.90;;;;;;5067386;28;20210;-72
2021/11/03 08:28:10;;;;;;;10.40;1.80;;;20.90;99.90;;;;;;5076019;28;20271;-73
2021/11/03 08:30:41;;;;;;;10.70;2.00;;;20.90;99.90;;;;;;5076149;28;20590;-76
2021/11/03 08:33:16;;;;;;;8.53;1.50;;;20.80;99.90;;;;;;5074346;28;20216;-71
2021/11/03 08:35:49;;;;;;;9.73;1.67;;;20.80;99.90;;;;;;5074282;28;20208;-70
2021/11/03 08:38:21;;;;;;;9.90;1.53;;;20.80;99.90;;;;;;5073646;28;20195;-71
2021/11/03 08:40:49;;;;;;;10.27;1.73;;;20.80;99.90;;;;;;5074029;28;20182;-72
2021/11/03 08:43:24;;;;;;;10.10;1.40;;;20.80;99.90;;;;;;5074262;28;20274;-73
2021/11/03 08:45:53;;;;;;;10.80;1.50;;;20.80;99.90;;;;;;5071191;28;20525;-70
2021/11/03 08:48:22;;;;;;;6.40;1.27;;;20.70;99.90;;;;;;5074902;28;20640;-73
2021/11/03 08:50:50;;;;;;;11.27;1.37;;;20.70;99.90;;;;;;5073747;28;20199;-70
2021/11/03 08:53:18;;;;;;;10.03;1.20;;;20.70;99.90;;;;;;5071479;28;20186;-73
2021/11/03 08:55:49;;;;;;;6.77;1.30;;;20.70;99.90;;;;;;5074207;28;20179;-75
2021/11/03 08:58:21;;;;;;;9.83;1.30;;;20.60;99.90;;;;;;5061228;28;20206;-71
2021/11/03 09:00:50;;;;;;;11.97;1.33;;;20.60;99.90;;;;;;5073835;28;20638;-72
2021/11/03 09:03:18;;;;;;;10.07;1.30;;;20.60;99.90;;;;;;5074240;28;20171;-71
2021/11/03 09:05:45;;;;;;;11.33;1.70;;;20.60;99.90;;;;;;5074302;28;20179;-70
2021/11/03 09:08:17;;;;;;;9.57;1.83;;;20.70;99.90;;;;;;5071426;28;20171;-73
2021/11/03 09:10:55;;;;;;;7.83;1.50;;;20.60;99.90;;;;;;5069045;28;20176;-70
2021/11/03 09:13:25;;;;;;;11.27;1.50;;;20.60;99.90;;;;;;5069548;28;20223;-73
2021/11/03 09:15:52;;;;;;;6.93;1.57;;;20.60;99.90;;;;;;5071864;28;20658;-72
2021/11/03 09:18:21;;;;;;;5.60;1.10;;;20.60;99.90;;;;;;5073548;28;20299;-72
2021/11/03 09:20:51;;;;;;;6.50;1.67;;;20.60;99.90;;;;;;5074471;28;20707;-71
2021/11/03 09:23:18;;;;;;;6.80;1.30;;;20.60;99.90;;;;;;5074357;28;20226;-72
2021/11/03 09:25:47;;;;;;;6.53;1.33;;;20.60;99.90;;;;;;5072314;28;20183;-71
2021/11/03 09:28:15;;;;;;;9.97;1.57;;;20.50;99.90;;;;;;5074069;28;20180;-72
2021/11/03 09:30:42;;;;;;;9.43;1.70;;;20.50;99.90;;;;;;5070747;28;20211;-72
2021/11/03 09:33:11;;;;;;;10.13;1.60;;;20.50;99.90;;;;;;5072232;28;20642;-72
2021/11/03 09:35:44;;;;;;;11.43;2.77;;;20.50;99.90;;;;;;5059083;28;20184;-73
2021/11/03 09:38:15;;;;;;;7.43;1.73;;;20.50;99.90;;;;;;5072026;28;20563;-72
2021/11/03 09:41:00;;;;;;;12.20;1.47;;;20.50;99.90;;;;;;5073891;28;20180;-72
2021/11/03 09:43:43;;;;;;;12.53;1.50;;;20.50;99.90;;;;;;5068869;28;20478;-72
2021/11/03 09:46:27;;;;;;;8.90;3.00;;;20.50;99.90;;;;;;5072552;28;20187;-72
2021/11/03 09:49:33;;;;;;;6.93;1.37;;;20.50;99.90;;;;;;5073973;28;20221;-73
2021/11/03 09:52:22;;;;;;;7.40;1.60;;;20.50;99.90;;;;;;5059816;28;20175;-74
2021/11/03 09:54:57;;;;;;;8.97;1.60;;;20.50;99.90;;;;;;5069079;28;20533;-77
2021/11/03 09:57:39;;;;;;;11.83;1.50;;;20.50;99.90;;;;;;5073202;28;20740;-72
2021/11/03 10:00:24;;;;;;;14.70;1.60;;;20.50;99.90;;;;;;5072631;28;20280;-72
2021/11/03 10:03:22;;;;;;;13.57;1.37;;;20.40;99.90;;;;;;5059854;28;20175;-72
2021/11/03 10:05:51;;;;;;;10.03;2.47;;;20.50;99.90;;;;;;5072646;28;20190;-72
2021/11/03 10:08:25;;;;;;;10.23;1.37;;;20.40;99.90;;;;;;5072851;28;20206;-73
2021/11/03 10:10:57;;;;;;;7.37;1.30;;;20.40;99.90;;;;;;5073128;28;20603;-71
2021/11/03 10:13:31;;;;;;;6.83;2.00;;;20.40;99.90;;;;;;5071953;28;20758;-78
2021/11/03 10:16:15;;;;;;;17.60;2.00;;;20.40;99.90;;;;;;5072429;28;20175;-69
2021/11/03 10:19:10;;;;;;;10.90;1.77;;;20.40;99.90;;;;;;5073094;28;20282;-76
2021/11/03 10:22:09;;;;;;;6.17;1.43;;;20.40;99.90;;;;;;5063534;28;20175;-71
2021/11/03 10:24:44;;;;;;;15.67;2.00;;;20.40;99.90;;;;;;5057528;28;20349;-71
2021/11/03 10:27:19;;;;;;;11.60;4.13;;;20.30;99.90;;;;;;5073125;28;20228;-70
2021/11/03 10:30:16;;;;;;;15.17;2.47;;;20.30;99.90;;;;;;5072499;28;20687;-71
2021/11/03 10:32:45;;;;;;;11.33;2.20;;;20.30;99.90;;;;;;5067119;28;20193;-71
2021/11/03 10:35:23;;;;;;;6.27;1.47;;;20.30;99.90;;;;;;5072974;28;20175;-72
2021/11/03 10:37:59;;;;;;;5.83;1.37;;;20.30;99.90;;;;;;5072534;28;20210;-73
2021/11/03 10:40:54;;;;;;;5.77;1.53;;;20.30;99.90;;;;;;5072093;28;20205;-71
2021/11/03 10:43:29;;;;;;;14.47;1.70;;;20.30;99.90;;;;;;5071831;28;20183;-73
2021/11/03 10:46:10;;;;;;;11.23;2.33;;;20.30;99.90;;;;;;5072449;28;20182;-71
2021/11/03 10:48:44;;;;;;;12.30;2.03;;;20.40;99.90;;;;;;5072342;28;20258;-78
2021/11/03 10:51:17;;;;;;;8.70;1.70;;;20.30;99.90;;;;;;5072540;28;20205;-72
2021/11/03 10:53:47;;;;;;;7.30;2.17;;;20.30;99.90;;;;;;5067724;28;20641;-71
2021/11/03 10:56:28;;;;;;;17.10;1.87;;;20.30;99.90;;;;;;5070507;28;20217;-71
2021/11/03 10:59:04;;;;;;;13.93;1.33;;;20.30;99.90;;;;;;5073379;28;20569;-74
2021/11/03 11:01:33;;;;;;;9.37;1.47;;;20.30;99.90;;;;;;5070919;28;20198;-73
2021/11/03 11:04:13;;;;;;;10.77;1.97;;;20.30;99.90;;;;;;5067730;28;20236;-72
2021/11/03 11:06:42;;;;;;;10.10;2.10;;;20.30;99.90;;;;;;5073118;28;20179;-77
2021/11/03 11:09:12;;;;;;;12.27;1.73;;;20.30;99.90;;;;;;5082839;28;20213;-72
2021/11/03 11:11:41;;;;;;;8.57;1.57;;;20.30;99.90;;;;;;5077785;28;20271;-72
2021/11/03 11:14:23;;;;;;;10.93;1.67;;;20.30;99.90;;;;;;5072141;28;20240;-75
2021/11/03 11:17:13;;;;;;;12.33;1.83;;;20.30;99.90;;;;;;5070440;28;20661;-80
2021/11/03 11:20:02;;;;;;;9.77;2.00;;;20.30;99.90;;;;;;5067928;28;21674;-75
2021/11/03 11:22:38;;;;;;;10.00;1.57;;;20.20;99.90;;;;;;5068047;28;20544;-74
2021/11/03 11:25:18;;;;;;;7.90;1.50;;;20.30;99.90;;;;;;5065129;28;20233;-75
2021/11/03 11:28:10;;;;;;;16.83;1.80;;;20.30;99.90;;;;;;5066570;28;20183;-73
2021/11/03 11:31:25;;;;;;;10.43;1.33;;;20.30;99.90;;;;;;5062309;28;20183;-71
2021/11/03 11:34:21;;;;;;;7.80;1.33;;;20.20;99.90;;;;;;5066614;28;20195;-76
2021/11/03 11:37:12;;;;;;;6.03;1.37;;;20.20;99.90;;;;;;5072614;28;20213;-71
2021/11/03 11:39:50;;;;;;;9.33;1.20;;;20.20;99.90;;;;;;5073823;28;20715;-69
2021/11/03 11:42:41;;;;;;;8.70;1.57;;;20.20;99.90;;;;;;5073066;28;20175;-71
2021/11/03 11:45:20;;;;;;;9.07;1.27;;;20.20;99.90;;;;;;5065872;28;20233;-72
2021/11/03 11:47:54;;;;;;;7.53;1.50;;;20.20;99.90;;;;;;5068498;28;20180;-72
2021/11/03 11:50:27;;;;;;;7.57;1.30;;;20.20;99.90;;;;;;5070206;28;20179;-72
2021/11/03 11:52:59;;;;;;;7.30;1.17;;;20.20;99.90;;;;;;5074759;28;20183;-73
2021/11/03 11:55:31;;;;;;;10.60;1.50;;;20.20;99.90;;;;;;5078746;28;20191;-76
2021/11/03 11:58:08;;;;;;;8.20;1.83;;;20.20;99.90;;;;;;5081349;28;20244;-72
2021/11/03 12:01:00;;;;;;;6.40;1.10;;;20.20;99.90;;;;;;5071811;28;20257;-72
2021/11/03 12:03:28;;;;;;;5.03;1.23;;;20.10;99.90;;;;;;5070335;28;20188;-71
2021/11/03 12:06:09;;;;;;;13.83;1.83;;;20.20;99.90;;;;;;5074566;28;20180;-69
2021/11/03 12:08:59;;;;;;;4.50;1.33;;;20.40;99.90;;;;;;5080491;28;20171;-73
2021/11/03 12:11:29;;;;;;;8.53;1.67;;;20.50;99.90;;;;;;5078523;28;20190;-71
2021/11/03 12:14:12;;;;;;;11.90;2.70;;;20.60;99.90;;;;;;5078555;28;20187;-73
2021/11/03 12:17:15;;;;;;;6.73;1.50;;;20.60;99.90;;;;;;5080286;28;20209;-72
2021/11/03 12:19:54;;;;;;;8.33;1.50;;;20.60;99.90;;;;;;5073015;28;20285;-73
2021/11/03 12:22:41;;;;;;;11.03;1.80;;;20.60;99.90;;;;;;5080723;28;20179;-71
2021/11/03 12:25:31;;;;;;;10.33;1.70;;;20.50;99.90;;;;;;5080802;28;20177;-72
2021/11/03 12:28:10;;;;;;;13.17;1.90;;;20.60;99.90;;;;;;5072690;28;20175;-76
2021/11/03 12:30:40;;;;;;;5.33;1.30;;;20.50;99.90;;;;;;5078392;28;20194;-72
2021/11/03 12:33:11;;;;;;;11.80;2.03;;;20.50;99.90;;;;;;5079948;28;20179;-71
2021/11/03 12:35:46;;;;;;;6.63;1.30;;;20.40;99.90;;;;;;5083411;28;20183;-71
2021/11/03 12:38:13;;;;;;;8.60;1.97;;;20.40;99.90;;;;;;5080262;28;20221;-71
2021/11/03 12:40:47;;;;;;;7.70;1.47;;;20.50;99.90;;;;;;5077454;28;20175;-73
2021/11/03 12:43:28;;;;;;;5.17;1.20;;;20.50;99.90;;;;;;5081205;28;20633;-72
2021/11/03 12:45:58;;;;;;;5.93;1.40;;;20.50;99.90;;;;;;5077995;28;20189;-70
2021/11/03 12:48:40;;;;;;;12.90;1.87;;;20.60;99.90;;;;;;5073849;28;20206;-70
2021/11/03 12:51:38;;;;;;;7.10;1.07;;;20.60;99.90;;;;;;5079073;28;20183;-70
2021/11/03 12:54:34;;;;;;;7.23;1.13;;;20.50;99.90;;;;;;5071283;28;20237;-70
2021/11/03 12:57:08;;;;;;;8.00;1.47;;;20.60;99.90;;;;;;5045597;28;20203;-73
2021/11/03 12:59:40;;;;;;;7.43;1.43;;;20.60;99.90;;;;;;5075325;28;20297;-71
2021/11/03 13:02:20;;;;;;;12.97;1.43;;;20.50;99.90;;;;;;5065281;28;20578;-70
2021/11/03 13:05:01;;;;;;;10.20;1.53;;;20.60;99.90;;;;;;5071144;28;20179;-73
2021/11/03 13:07:38;;;;;;;6.97;1.13;;;20.70;99.90;;;;;;5073386;28;20179;-72
2021/11/03 13:10:15;;;;;;;10.40;1.30;;;20.60;99.90;;;;;;5074431;28;20182;-74